TAP1717 LPFR-LPMA
Flight info
| Callsign | TAP1717 |
|---|---|
| Flight time | 1h 28m |
| Altitude | 37000 |
| Route | IXOLI DCT NARTA DCT GALPA DCT RAKUN |
| Aircraft | A319/M-SDE3FGHIJ1RWXYZ/LB1 |
Departure
| Time | 2026-05-06 21:48 |
|---|---|
| Airport | Faro - Gago Coutinho International Airport (LPFR) |
Arrival
| Time | 2026-05-06 23:17 |
|---|---|
| Airport | Cristiano Ronaldo International Airport (LPMA) |
| Time | Latitude | Longitude | Altitude | Speed | Heading |
|---|---|---|---|---|---|
| 2026-05-06 21:18 | 37.01916 | -7.96848 | 20 ft | 0 kts | 9° |
| 2026-05-06 21:40 | 37.01898 | -7.96852 | 22 ft | 4 kts | 12° |
| 2026-05-06 21:40 | 37.01872 | -7.96860 | 21 ft | 4 kts | 20° |
| 2026-05-06 21:40 | 37.01848 | -7.96874 | 21 ft | 4 kts | 44° |
| 2026-05-06 21:40 | 37.01838 | -7.96895 | 21 ft | 1 kts | 101° |
| 2026-05-06 21:41 | 37.01839 | -7.96900 | 21 ft | 0 kts | 101° |
| 2026-05-06 21:43 | 37.01838 | -7.96893 | 21 ft | 3 kts | 101° |
| 2026-05-06 21:43 | 37.01831 | -7.96846 | 21 ft | 8 kts | 100° |
| 2026-05-06 21:43 | 37.01818 | -7.96757 | 20 ft | 13 kts | 99° |
| 2026-05-06 21:43 | 37.01802 | -7.96641 | 20 ft | 14 kts | 99° |
| 2026-05-06 21:44 | 37.01784 | -7.96521 | 20 ft | 14 kts | 101° |
| 2026-05-06 21:44 | 37.01766 | -7.96396 | 20 ft | 15 kts | 100° |
| 2026-05-06 21:44 | 37.01747 | -7.96266 | 19 ft | 15 kts | 100° |
| 2026-05-06 21:44 | 37.01729 | -7.96144 | 19 ft | 14 kts | 101° |
| 2026-05-06 21:45 | 37.01666 | -7.96080 | 18 ft | 13 kts | 187° |
| 2026-05-06 21:45 | 37.01581 | -7.96098 | 19 ft | 12 kts | 181° |
| 2026-05-06 21:45 | 37.01545 | -7.96016 | 19 ft | 12 kts | 100° |
| 2026-05-06 21:45 | 37.01532 | -7.95913 | 18 ft | 13 kts | 99° |
| 2026-05-06 21:46 | 37.01485 | -7.95840 | 18 ft | 10 kts | 168° |
| 2026-05-06 21:46 | 37.01444 | -7.95845 | 21 ft | 1 kts | 189° |
| 2026-05-06 21:46 | 37.01436 | -7.95847 | 19 ft | 4 kts | 189° |
| 2026-05-06 21:47 | 37.01383 | -7.95858 | 23 ft | 11 kts | 190° |
| 2026-05-06 21:47 | 37.01348 | -7.95912 | 22 ft | 5 kts | 278° |
| 2026-05-06 21:47 | 37.01349 | -7.95917 | 22 ft | 0 kts | 279° |
| 2026-05-06 21:48 | 37.01379 | -7.96132 | 22 ft | 64 kts | 280° |
| 2026-05-06 21:48 | 37.01497 | -7.96975 | 22 ft | 130 kts | 280° |
| 2026-05-06 21:48 | 37.01668 | -7.98200 | 433 ft | 143 kts | 282° |
| 2026-05-06 21:48 | 37.01848 | -7.99426 | 1120 ft | 143 kts | 285° |
| 2026-05-06 21:49 | 37.02028 | -8.00644 | 1770 ft | 143 kts | 288° |
| 2026-05-06 21:49 | 37.02225 | -8.01944 | 2172 ft | 163 kts | 287° |
| 2026-05-06 21:49 | 37.02452 | -8.03433 | 2542 ft | 185 kts | 286° |
| 2026-05-06 21:49 | 37.02709 | -8.05123 | 2936 ft | 208 kts | 284° |
| 2026-05-06 21:50 | 37.02951 | -8.06951 | 3646 ft | 218 kts | 276° |
| 2026-05-06 21:50 | 37.02967 | -8.08957 | 4161 ft | 243 kts | 267° |
| 2026-05-06 21:50 | 37.02867 | -8.10428 | 4507 ft | 259 kts | 264° |
| 2026-05-06 21:50 | 37.02559 | -8.13380 | 5539 ft | 272 kts | 261° |
| 2026-05-06 21:51 | 37.02297 | -8.15756 | 6429 ft | 279 kts | 261° |
| 2026-05-06 21:51 | 37.02047 | -8.18186 | 7342 ft | 283 kts | 262° |
| 2026-05-06 21:51 | 37.01816 | -8.20643 | 8333 ft | 285 kts | 262° |
| 2026-05-06 21:51 | 37.01600 | -8.23114 | 9330 ft | 287 kts | 263° |
| 2026-05-06 21:52 | 37.01390 | -8.25602 | 10241 ft | 292 kts | 263° |
| 2026-05-06 21:52 | 37.01169 | -8.28226 | 10606 ft | 314 kts | 263° |
| 2026-05-06 21:52 | 37.00938 | -8.30995 | 11280 ft | 323 kts | 263° |
| 2026-05-06 21:52 | 37.00707 | -8.33804 | 12136 ft | 326 kts | 263° |
| 2026-05-06 21:53 | 37.00476 | -8.36632 | 12995 ft | 329 kts | 263° |
| 2026-05-06 21:53 | 37.00241 | -8.39489 | 13832 ft | 332 kts | 263° |
| 2026-05-06 21:53 | 37.00001 | -8.42374 | 14566 ft | 335 kts | 263° |
| 2026-05-06 21:53 | 36.99757 | -8.45287 | 15287 ft | 338 kts | 263° |
| 2026-05-06 21:54 | 36.99510 | -8.48223 | 16012 ft | 341 kts | 262° |
| 2026-05-06 21:54 | 36.99262 | -8.51177 | 16748 ft | 343 kts | 262° |
| 2026-05-06 21:54 | 36.99012 | -8.54162 | 17474 ft | 346 kts | 262° |
| 2026-05-06 21:54 | 36.98759 | -8.57171 | 18205 ft | 349 kts | 262° |
| 2026-05-06 21:55 | 36.98502 | -8.60202 | 18835 ft | 352 kts | 262° |
| 2026-05-06 21:55 | 36.98238 | -8.63258 | 19464 ft | 354 kts | 262° |
| 2026-05-06 21:55 | 36.97972 | -8.66331 | 20102 ft | 357 kts | 262° |
| 2026-05-06 21:55 | 36.97694 | -8.69427 | 20742 ft | 359 kts | 261° |
| 2026-05-06 21:56 | 36.97135 | -8.72475 | 21351 ft | 361 kts | 253° |
| 2026-05-06 21:56 | 36.96689 | -8.74481 | 21771 ft | 363 kts | 253° |
| 2026-05-06 21:56 | 36.96014 | -8.77532 | 22396 ft | 365 kts | 254° |
| 2026-05-06 21:56 | 36.95336 | -8.80604 | 23022 ft | 368 kts | 254° |
| 2026-05-06 21:57 | 36.94651 | -8.83697 | 23608 ft | 371 kts | 254° |
| 2026-05-06 21:57 | 36.93962 | -8.86811 | 24105 ft | 373 kts | 254° |
| 2026-05-06 21:57 | 36.93269 | -8.89942 | 24593 ft | 375 kts | 254° |
| 2026-05-06 21:57 | 36.92573 | -8.93088 | 25079 ft | 377 kts | 254° |
| 2026-05-06 21:58 | 36.91873 | -8.96254 | 25550 ft | 379 kts | 254° |
| 2026-05-06 21:58 | 36.91170 | -8.99435 | 26016 ft | 381 kts | 254° |
| 2026-05-06 21:58 | 36.90463 | -9.02632 | 26478 ft | 383 kts | 254° |
| 2026-05-06 21:58 | 36.89748 | -9.05846 | 26924 ft | 385 kts | 254° |
| 2026-05-06 21:59 | 36.89025 | -9.09075 | 27380 ft | 387 kts | 254° |
| 2026-05-06 21:59 | 36.88296 | -9.12323 | 27824 ft | 389 kts | 254° |
| 2026-05-06 21:59 | 36.87565 | -9.15585 | 28264 ft | 392 kts | 254° |
| 2026-05-06 21:59 | 36.86829 | -9.18869 | 28697 ft | 394 kts | 254° |
| 2026-05-06 22:00 | 36.86087 | -9.22175 | 29119 ft | 396 kts | 254° |
| 2026-05-06 22:00 | 36.85340 | -9.25494 | 29532 ft | 398 kts | 254° |
| 2026-05-06 22:00 | 36.84586 | -9.28830 | 29944 ft | 401 kts | 254° |
| 2026-05-06 22:00 | 36.83825 | -9.32184 | 30286 ft | 403 kts | 255° |
| 2026-05-06 22:01 | 36.83059 | -9.35563 | 30606 ft | 405 kts | 255° |
| 2026-05-06 22:01 | 36.82290 | -9.38957 | 30925 ft | 407 kts | 255° |
| 2026-05-06 22:01 | 36.81519 | -9.42367 | 31233 ft | 410 kts | 255° |
| 2026-05-06 22:01 | 36.80744 | -9.45795 | 31539 ft | 412 kts | 255° |
| 2026-05-06 22:02 | 36.79964 | -9.49240 | 31889 ft | 413 kts | 256° |
| 2026-05-06 22:02 | 36.79183 | -9.52683 | 32317 ft | 412 kts | 256° |
| 2026-05-06 22:02 | 36.78402 | -9.56110 | 32747 ft | 411 kts | 256° |
| 2026-05-06 22:02 | 36.77623 | -9.59534 | 33178 ft | 410 kts | 256° |
| 2026-05-06 22:03 | 36.76843 | -9.62948 | 33620 ft | 409 kts | 256° |
| 2026-05-06 22:03 | 36.76064 | -9.66350 | 34045 ft | 408 kts | 257° |
| 2026-05-06 22:03 | 36.75285 | -9.69746 | 34405 ft | 407 kts | 256° |
| 2026-05-06 22:03 | 36.74504 | -9.73139 | 34721 ft | 407 kts | 256° |
| 2026-05-06 22:04 | 36.73721 | -9.76537 | 35024 ft | 408 kts | 256° |
| 2026-05-06 22:04 | 36.72938 | -9.79934 | 35314 ft | 408 kts | 256° |
| 2026-05-06 22:04 | 36.72154 | -9.83337 | 35596 ft | 409 kts | 256° |
| 2026-05-06 22:04 | 36.71369 | -9.86747 | 35873 ft | 409 kts | 256° |
| 2026-05-06 22:05 | 36.70583 | -9.90157 | 36147 ft | 410 kts | 256° |
| 2026-05-06 22:05 | 36.69792 | -9.93573 | 36403 ft | 410 kts | 256° |
| 2026-05-06 22:05 | 36.69000 | -9.96991 | 36658 ft | 411 kts | 256° |
| 2026-05-06 22:05 | 36.68205 | -10.00410 | 36895 ft | 412 kts | 256° |
| 2026-05-06 22:06 | 36.67406 | -10.03840 | 36997 ft | 411 kts | 256° |
| 2026-05-06 22:06 | 36.66609 | -10.07255 | 37015 ft | 410 kts | 256° |
| 2026-05-06 22:06 | 36.65019 | -10.14058 | 37011 ft | 409 kts | 256° |
| 2026-05-06 22:07 | 36.63429 | -10.20849 | 37010 ft | 409 kts | 256° |
| 2026-05-06 22:07 | 36.61837 | -10.27641 | 37017 ft | 409 kts | 256° |
| 2026-05-06 22:08 | 36.60241 | -10.34437 | 37014 ft | 409 kts | 256° |
| 2026-05-06 22:08 | 36.58633 | -10.41232 | 37017 ft | 409 kts | 256° |
| 2026-05-06 22:09 | 36.57020 | -10.48016 | 37009 ft | 409 kts | 256° |
| 2026-05-06 22:09 | 36.55407 | -10.54809 | 37013 ft | 409 kts | 256° |
| 2026-05-06 22:10 | 36.53794 | -10.61599 | 37009 ft | 409 kts | 256° |
| 2026-05-06 22:10 | 36.52173 | -10.68386 | 37009 ft | 410 kts | 256° |
| 2026-05-06 22:11 | 36.50545 | -10.75174 | 37007 ft | 410 kts | 256° |
| 2026-05-06 22:11 | 36.48915 | -10.81961 | 37008 ft | 410 kts | 256° |
| 2026-05-06 22:12 | 36.47279 | -10.88750 | 37012 ft | 410 kts | 256° |
| 2026-05-06 22:12 | 36.45643 | -10.95534 | 37014 ft | 410 kts | 256° |
| 2026-05-06 22:13 | 36.44001 | -11.02323 | 37015 ft | 410 kts | 256° |
| 2026-05-06 22:13 | 36.42356 | -11.09109 | 37017 ft | 410 kts | 256° |
| 2026-05-06 22:14 | 36.40699 | -11.15891 | 37021 ft | 411 kts | 256° |
| 2026-05-06 22:14 | 36.39043 | -11.22670 | 37023 ft | 410 kts | 256° |
| 2026-05-06 22:15 | 36.37402 | -11.29410 | 37022 ft | 410 kts | 256° |
| 2026-05-06 22:15 | 36.35742 | -11.36184 | 37023 ft | 410 kts | 256° |
| 2026-05-06 22:16 | 36.34062 | -11.42998 | 37024 ft | 410 kts | 256° |
| 2026-05-06 22:16 | 36.32402 | -11.49718 | 37027 ft | 410 kts | 257° |
| 2026-05-06 22:17 | 36.30727 | -11.56478 | 37028 ft | 410 kts | 257° |
| 2026-05-06 22:17 | 36.29052 | -11.63227 | 37037 ft | 410 kts | 257° |
| 2026-05-06 22:18 | 36.27375 | -11.69973 | 37036 ft | 409 kts | 257° |
| 2026-05-06 22:18 | 36.25695 | -11.76707 | 37042 ft | 409 kts | 257° |
| 2026-05-06 22:19 | 36.24011 | -11.83432 | 37043 ft | 409 kts | 257° |
| 2026-05-06 22:19 | 36.22320 | -11.90149 | 37047 ft | 408 kts | 257° |
| 2026-05-06 22:20 | 36.20634 | -11.96861 | 37044 ft | 408 kts | 257° |
| 2026-05-06 22:20 | 36.18949 | -12.03570 | 37046 ft | 408 kts | 257° |
| 2026-05-06 22:21 | 36.17254 | -12.10267 | 37046 ft | 408 kts | 257° |
| 2026-05-06 22:21 | 36.15557 | -12.16962 | 37049 ft | 408 kts | 257° |
| 2026-05-06 22:22 | 36.13864 | -12.23656 | 37046 ft | 407 kts | 257° |
| 2026-05-06 22:22 | 36.12163 | -12.30344 | 37050 ft | 408 kts | 257° |
| 2026-05-06 22:23 | 36.10453 | -12.37024 | 37054 ft | 408 kts | 257° |
| 2026-05-06 22:23 | 36.08739 | -12.43704 | 37056 ft | 408 kts | 257° |
| 2026-05-06 22:24 | 36.07022 | -12.50382 | 37065 ft | 408 kts | 257° |
| 2026-05-06 22:24 | 36.04671 | -12.56790 | 37051 ft | 417 kts | 240° |
| 2026-05-06 22:25 | 36.00844 | -12.62258 | 37058 ft | 422 kts | 233° |
| 2026-05-06 22:25 | 35.96872 | -12.67603 | 37055 ft | 422 kts | 233° |
| 2026-05-06 22:26 | 35.92913 | -12.72956 | 37054 ft | 422 kts | 233° |
| 2026-05-06 22:26 | 35.88952 | -12.78300 | 37059 ft | 422 kts | 233° |
| 2026-05-06 22:27 | 35.84986 | -12.83633 | 37063 ft | 422 kts | 233° |
| 2026-05-06 22:27 | 35.81017 | -12.88951 | 37068 ft | 421 kts | 233° |
| 2026-05-06 22:28 | 35.77045 | -12.94258 | 37072 ft | 421 kts | 233° |
| 2026-05-06 22:28 | 35.73077 | -12.99558 | 37070 ft | 421 kts | 233° |
| 2026-05-06 22:29 | 35.69114 | -13.04849 | 37077 ft | 420 kts | 233° |
| 2026-05-06 22:29 | 35.65151 | -13.10119 | 37076 ft | 419 kts | 233° |
| 2026-05-06 22:30 | 35.61192 | -13.15386 | 37079 ft | 419 kts | 233° |
| 2026-05-06 22:30 | 35.57239 | -13.20640 | 37086 ft | 419 kts | 233° |
| 2026-05-06 22:31 | 35.53281 | -13.25881 | 37087 ft | 418 kts | 232° |
| 2026-05-06 22:31 | 35.49336 | -13.31115 | 37093 ft | 417 kts | 233° |
| 2026-05-06 22:32 | 35.45395 | -13.36335 | 37090 ft | 417 kts | 232° |
| 2026-05-06 22:32 | 35.41454 | -13.41534 | 37091 ft | 416 kts | 232° |
| 2026-05-06 22:33 | 35.37511 | -13.46720 | 37091 ft | 415 kts | 232° |
| 2026-05-06 22:33 | 35.33577 | -13.51897 | 37087 ft | 415 kts | 232° |
| 2026-05-06 22:34 | 35.29640 | -13.57064 | 37085 ft | 415 kts | 232° |
| 2026-05-06 22:34 | 35.25711 | -13.62225 | 37089 ft | 414 kts | 232° |
| 2026-05-06 22:35 | 35.21779 | -13.67379 | 37087 ft | 414 kts | 232° |
| 2026-05-06 22:35 | 35.17847 | -13.72522 | 37090 ft | 414 kts | 232° |
| 2026-05-06 22:36 | 35.13941 | -13.77622 | 37087 ft | 413 kts | 232° |
| 2026-05-06 22:36 | 35.10004 | -13.82745 | 37092 ft | 413 kts | 232° |
| 2026-05-06 22:37 | 35.06081 | -13.87859 | 37088 ft | 413 kts | 232° |
| 2026-05-06 22:37 | 35.02155 | -13.92968 | 37088 ft | 412 kts | 232° |
| 2026-05-06 22:38 | 34.98224 | -13.98063 | 37089 ft | 412 kts | 232° |
| 2026-05-06 22:38 | 34.94295 | -14.03150 | 37094 ft | 412 kts | 232° |
| 2026-05-06 22:39 | 34.90366 | -14.08231 | 37087 ft | 412 kts | 232° |
| 2026-05-06 22:39 | 34.86442 | -14.13310 | 37093 ft | 412 kts | 232° |
| 2026-05-06 22:40 | 34.82513 | -14.18385 | 37097 ft | 411 kts | 231° |
| 2026-05-06 22:40 | 34.79249 | -14.22592 | 37098 ft | 411 kts | 231° |
| 2026-05-06 22:41 | 34.73355 | -14.30172 | 37105 ft | 411 kts | 231° |
| 2026-05-06 22:42 | 34.69429 | -14.35216 | 37101 ft | 411 kts | 231° |
| 2026-05-06 22:42 | 34.65499 | -14.40250 | 37106 ft | 410 kts | 231° |
| 2026-05-06 22:43 | 34.61567 | -14.45279 | 37105 ft | 410 kts | 231° |
| 2026-05-06 22:43 | 34.57643 | -14.50288 | 37105 ft | 409 kts | 231° |
| 2026-05-06 22:44 | 34.53728 | -14.55294 | 37097 ft | 409 kts | 231° |
| 2026-05-06 22:44 | 34.49817 | -14.60291 | 37099 ft | 408 kts | 231° |
| 2026-05-06 22:45 | 34.45898 | -14.65277 | 37103 ft | 408 kts | 231° |
| 2026-05-06 22:45 | 34.41976 | -14.70252 | 37097 ft | 408 kts | 231° |
| 2026-05-06 22:46 | 34.38056 | -14.75225 | 37097 ft | 408 kts | 230° |
| 2026-05-06 22:46 | 34.34137 | -14.80195 | 37102 ft | 408 kts | 230° |
| 2026-05-06 22:47 | 34.30222 | -14.85157 | 37099 ft | 408 kts | 230° |
| 2026-05-06 22:47 | 34.26302 | -14.90114 | 37104 ft | 408 kts | 230° |
| 2026-05-06 22:48 | 34.22372 | -14.95063 | 37108 ft | 408 kts | 230° |
| 2026-05-06 22:48 | 34.18446 | -15.00004 | 37107 ft | 408 kts | 230° |
| 2026-05-06 22:49 | 34.14514 | -15.04957 | 36611 ft | 412 kts | 230° |
| 2026-05-06 22:49 | 34.12497 | -15.07497 | 35375 ft | 425 kts | 230° |
| 2026-05-06 22:49 | 34.10458 | -15.10056 | 34967 ft | 418 kts | 230° |
| 2026-05-06 22:49 | 34.08452 | -15.12561 | 34502 ft | 413 kts | 230° |
| 2026-05-06 22:50 | 34.06469 | -15.15037 | 33982 ft | 408 kts | 230° |
| 2026-05-06 22:50 | 34.04510 | -15.17487 | 33467 ft | 403 kts | 230° |
| 2026-05-06 22:50 | 34.02580 | -15.19903 | 32985 ft | 398 kts | 230° |
| 2026-05-06 22:50 | 34.00669 | -15.22292 | 32499 ft | 393 kts | 230° |
| 2026-05-06 22:51 | 33.98788 | -15.24650 | 32024 ft | 388 kts | 230° |
| 2026-05-06 22:51 | 33.96931 | -15.26983 | 31555 ft | 384 kts | 230° |
| 2026-05-06 22:51 | 33.95093 | -15.29292 | 31095 ft | 380 kts | 230° |
| 2026-05-06 22:51 | 33.93296 | -15.31547 | 30647 ft | 376 kts | 229° |
| 2026-05-06 22:52 | 33.91488 | -15.33806 | 30200 ft | 373 kts | 229° |
| 2026-05-06 22:52 | 33.89696 | -15.36036 | 29725 ft | 369 kts | 229° |
| 2026-05-06 22:52 | 33.87925 | -15.38238 | 29303 ft | 364 kts | 229° |
| 2026-05-06 22:52 | 33.86175 | -15.40415 | 28886 ft | 360 kts | 229° |
| 2026-05-06 22:53 | 33.84443 | -15.42569 | 28474 ft | 356 kts | 229° |
| 2026-05-06 22:53 | 33.82727 | -15.44701 | 28077 ft | 353 kts | 229° |
| 2026-05-06 22:53 | 33.81032 | -15.46808 | 27686 ft | 349 kts | 229° |
| 2026-05-06 22:53 | 33.79354 | -15.48894 | 27299 ft | 345 kts | 229° |
| 2026-05-06 22:54 | 33.77691 | -15.50957 | 26917 ft | 341 kts | 229° |
| 2026-05-06 22:54 | 33.76048 | -15.52993 | 26544 ft | 337 kts | 229° |
| 2026-05-06 22:54 | 33.74426 | -15.55002 | 26164 ft | 333 kts | 229° |
| 2026-05-06 22:54 | 33.72821 | -15.56993 | 25783 ft | 330 kts | 229° |
| 2026-05-06 22:55 | 33.71233 | -15.58960 | 25406 ft | 326 kts | 229° |
| 2026-05-06 22:55 | 33.69659 | -15.60906 | 25010 ft | 323 kts | 229° |
| 2026-05-06 22:55 | 33.68097 | -15.62836 | 24622 ft | 321 kts | 229° |
| 2026-05-06 22:55 | 33.66550 | -15.64749 | 24231 ft | 319 kts | 229° |
| 2026-05-06 22:56 | 33.65009 | -15.66654 | 23828 ft | 317 kts | 229° |
| 2026-05-06 22:56 | 33.63475 | -15.68545 | 23390 ft | 315 kts | 229° |
| 2026-05-06 22:56 | 33.61952 | -15.70421 | 22978 ft | 313 kts | 229° |
| 2026-05-06 22:56 | 33.60436 | -15.72291 | 22583 ft | 312 kts | 229° |
| 2026-05-06 22:57 | 33.58928 | -15.74154 | 22192 ft | 311 kts | 229° |
| 2026-05-06 22:57 | 33.57424 | -15.76012 | 21797 ft | 310 kts | 229° |
| 2026-05-06 22:57 | 33.55922 | -15.77863 | 21412 ft | 309 kts | 229° |
| 2026-05-06 22:57 | 33.54412 | -15.79695 | 21031 ft | 309 kts | 228° |
| 2026-05-06 22:58 | 33.52881 | -15.81501 | 20647 ft | 309 kts | 227° |
| 2026-05-06 22:58 | 33.51343 | -15.83292 | 20266 ft | 308 kts | 227° |
| 2026-05-06 22:58 | 33.49807 | -15.85076 | 19886 ft | 307 kts | 227° |
| 2026-05-06 22:58 | 33.48274 | -15.86860 | 19507 ft | 307 kts | 227° |
| 2026-05-06 22:59 | 33.46745 | -15.88644 | 19129 ft | 307 kts | 227° |
| 2026-05-06 22:59 | 33.45215 | -15.90428 | 18754 ft | 307 kts | 227° |
| 2026-05-06 22:59 | 33.43685 | -15.92210 | 18369 ft | 307 kts | 227° |
| 2026-05-06 22:59 | 33.42157 | -15.93997 | 17963 ft | 307 kts | 227° |
| 2026-05-06 23:00 | 33.40635 | -15.95780 | 17585 ft | 306 kts | 227° |
| 2026-05-06 23:00 | 33.39117 | -15.97555 | 17214 ft | 305 kts | 227° |
| 2026-05-06 23:00 | 33.37603 | -15.99324 | 16857 ft | 304 kts | 227° |
| 2026-05-06 23:00 | 33.36093 | -16.01087 | 16493 ft | 303 kts | 227° |
| 2026-05-06 23:01 | 33.34585 | -16.02847 | 16127 ft | 303 kts | 227° |
| 2026-05-06 23:01 | 33.33079 | -16.04604 | 15771 ft | 302 kts | 227° |
| 2026-05-06 23:01 | 33.31576 | -16.06356 | 15418 ft | 302 kts | 227° |
| 2026-05-06 23:01 | 33.30072 | -16.08111 | 15063 ft | 302 kts | 226° |
| 2026-05-06 23:02 | 33.28569 | -16.09863 | 14706 ft | 302 kts | 226° |
| 2026-05-06 23:02 | 33.27061 | -16.11618 | 14347 ft | 303 kts | 226° |
| 2026-05-06 23:02 | 33.25550 | -16.13375 | 13985 ft | 303 kts | 226° |
| 2026-05-06 23:02 | 33.24035 | -16.15132 | 13590 ft | 304 kts | 226° |
| 2026-05-06 23:03 | 33.22522 | -16.16885 | 13222 ft | 302 kts | 226° |
| 2026-05-06 23:03 | 33.21017 | -16.18630 | 12857 ft | 301 kts | 226° |
| 2026-05-06 23:03 | 33.19517 | -16.20372 | 12492 ft | 300 kts | 226° |
| 2026-05-06 23:03 | 33.18026 | -16.22106 | 12122 ft | 299 kts | 226° |
| 2026-05-06 23:04 | 33.16540 | -16.23833 | 11746 ft | 298 kts | 226° |
| 2026-05-06 23:04 | 33.15060 | -16.25551 | 11373 ft | 296 kts | 225° |
| 2026-05-06 23:04 | 33.13583 | -16.27262 | 10997 ft | 296 kts | 225° |
| 2026-05-06 23:04 | 33.12111 | -16.28966 | 10655 ft | 293 kts | 225° |
| 2026-05-06 23:05 | 33.10647 | -16.30658 | 10269 ft | 292 kts | 225° |
| 2026-05-06 23:05 | 33.09187 | -16.32344 | 9898 ft | 291 kts | 225° |
| 2026-05-06 23:05 | 33.07738 | -16.34017 | 9507 ft | 289 kts | 225° |
| 2026-05-06 23:05 | 33.06293 | -16.35685 | 9090 ft | 288 kts | 225° |
| 2026-05-06 23:06 | 33.04857 | -16.37345 | 8641 ft | 287 kts | 225° |
| 2026-05-06 23:06 | 33.03430 | -16.38996 | 8246 ft | 285 kts | 224° |
| 2026-05-06 23:06 | 33.02056 | -16.40583 | 7837 ft | 284 kts | 224° |
| 2026-05-06 23:06 | 33.00638 | -16.42218 | 7430 ft | 283 kts | 224° |
| 2026-05-06 23:07 | 32.99226 | -16.43842 | 7011 ft | 282 kts | 224° |
| 2026-05-06 23:07 | 32.97821 | -16.45461 | 6596 ft | 281 kts | 224° |
| 2026-05-06 23:07 | 32.96421 | -16.47075 | 6152 ft | 280 kts | 224° |
| 2026-05-06 23:07 | 32.95027 | -16.48679 | 5693 ft | 279 kts | 224° |
| 2026-05-06 23:08 | 32.93639 | -16.50277 | 5250 ft | 277 kts | 223° |
| 2026-05-06 23:08 | 32.92251 | -16.51859 | 4811 ft | 276 kts | 222° |
| 2026-05-06 23:08 | 32.90829 | -16.53405 | 4314 ft | 277 kts | 221° |
| 2026-05-06 23:08 | 32.89417 | -16.54903 | 4133 ft | 266 kts | 220° |
| 2026-05-06 23:09 | 32.88061 | -16.56339 | 3944 ft | 257 kts | 220° |
| 2026-05-06 23:09 | 32.86727 | -16.57753 | 3808 ft | 257 kts | 221° |
| 2026-05-06 23:09 | 32.85394 | -16.59170 | 3682 ft | 258 kts | 221° |
| 2026-05-06 23:09 | 32.84056 | -16.60592 | 3463 ft | 258 kts | 221° |
| 2026-05-06 23:10 | 32.82723 | -16.61999 | 3120 ft | 255 kts | 219° |
| 2026-05-06 23:10 | 32.81263 | -16.63161 | 2766 ft | 252 kts | 206° |
| 2026-05-06 23:10 | 32.79646 | -16.63935 | 2421 ft | 249 kts | 195° |
| 2026-05-06 23:10 | 32.78019 | -16.64585 | 2359 ft | 248 kts | 196° |
| 2026-05-06 23:11 | 32.76380 | -16.65248 | 2303 ft | 249 kts | 196° |
| 2026-05-06 23:11 | 32.74737 | -16.65916 | 2250 ft | 250 kts | 196° |
| 2026-05-06 23:11 | 32.73097 | -16.66583 | 2145 ft | 249 kts | 197° |
| 2026-05-06 23:11 | 32.71457 | -16.67251 | 2023 ft | 249 kts | 197° |
| 2026-05-06 23:12 | 32.69817 | -16.67918 | 1966 ft | 248 kts | 197° |
| 2026-05-06 23:12 | 32.68236 | -16.68560 | 2004 ft | 236 kts | 197° |
| 2026-05-06 23:12 | 32.66718 | -16.69180 | 2008 ft | 220 kts | 196° |
| 2026-05-06 23:12 | 32.65305 | -16.69755 | 2003 ft | 210 kts | 196° |
| 2026-05-06 23:13 | 32.64013 | -16.70287 | 2038 ft | 188 kts | 197° |
| 2026-05-06 23:13 | 32.62902 | -16.71008 | 2008 ft | 182 kts | 214° |
| 2026-05-06 23:13 | 32.61979 | -16.72035 | 2018 ft | 182 kts | 230° |
| 2026-05-06 23:13 | 32.61303 | -16.73301 | 2011 ft | 182 kts | 246° |
| 2026-05-06 23:14 | 32.60923 | -16.74721 | 2013 ft | 180 kts | 262° |
| 2026-05-06 23:14 | 32.60854 | -16.76183 | 2011 ft | 177 kts | 278° |
| 2026-05-06 23:14 | 32.61082 | -16.77591 | 2019 ft | 167 kts | 293° |
| 2026-05-06 23:14 | 32.61564 | -16.78725 | 1858 ft | 146 kts | 313° |
| 2026-05-06 23:15 | 32.62244 | -16.79541 | 1608 ft | 134 kts | 329° |
| 2026-05-06 23:15 | 32.63026 | -16.80071 | 1477 ft | 127 kts | 343° |
| 2026-05-06 23:15 | 32.63857 | -16.80333 | 1289 ft | 121 kts | 356° |
| 2026-05-06 23:15 | 32.64704 | -16.80368 | 1095 ft | 123 kts | 3° |
| 2026-05-06 23:16 | 32.65560 | -16.80335 | 957 ft | 124 kts | 4° |
| 2026-05-06 23:16 | 32.66418 | -16.80234 | 792 ft | 124 kts | 9° |
| 2026-05-06 23:16 | 32.67242 | -16.79939 | 629 ft | 127 kts | 19° |
| 2026-05-06 23:16 | 32.67992 | -16.79406 | 454 ft | 127 kts | 33° |
| 2026-05-06 23:17 | 32.68656 | -16.78745 | 280 ft | 123 kts | 37° |
| 2026-05-06 23:17 | 32.69269 | -16.78047 | 179 ft | 115 kts | 40° |
| 2026-05-06 23:17 | 32.69711 | -16.77536 | 181 ft | 49 kts | 44° |
| 2026-05-06 23:17 | 32.69896 | -16.77319 | 186 ft | 31 kts | 45° |
| 2026-05-06 23:18 | 32.70005 | -16.77190 | 193 ft | 13 kts | 46° |
| 2026-05-06 23:18 | 32.70041 | -16.77147 | 197 ft | 2 kts | 316° |
| 2026-05-06 23:18 | 32.70025 | -16.77168 | 188 ft | 8 kts | 226° |
| 2026-05-06 23:18 | 32.69951 | -16.77255 | 188 ft | 20 kts | 224° |
| 2026-05-06 23:19 | 32.69844 | -16.77380 | 185 ft | 23 kts | 224° |
| 2026-05-06 23:19 | 32.69724 | -16.77521 | 181 ft | 25 kts | 224° |
| 2026-05-06 23:19 | 32.69598 | -16.77668 | 176 ft | 25 kts | 225° |
| 2026-05-06 23:19 | 32.69485 | -16.77800 | 173 ft | 21 kts | 224° |
| 2026-05-06 23:20 | 32.69387 | -16.77914 | 170 ft | 17 kts | 225° |
| 2026-05-06 23:20 | 32.69305 | -16.77951 | 169 ft | 13 kts | 144° |
| 2026-05-06 23:20 | 32.69296 | -16.77852 | 169 ft | 13 kts | 65° |
| 2026-05-06 23:20 | 32.69342 | -16.77791 | 169 ft | 7 kts | 46° |
| 2026-05-06 23:21 | 32.69335 | -16.77755 | 169 ft | 5 kts | 137° |
| 2026-05-06 23:21 | 32.69313 | -16.77732 | 169 ft | 2 kts | 138° |
| 2026-05-06 23:21 | 32.69306 | -16.77724 | 169 ft | 0 kts | 138° |